sensor_id;sensor_type;location;lat;lon;timestamp;P1;durP1;ratioP1;P2;durP2;ratioP2
50393;SDS011;36308;46.312;25.288;2023-03-31T00:00:35;41.38;;;16.48;;
50393;SDS011;36308;46.312;25.288;2023-03-31T00:03:00;28.88;;;12.93;;
50393;SDS011;36308;46.312;25.288;2023-03-31T00:05:26;44.40;;;17.25;;
50393;SDS011;36308;46.312;25.288;2023-03-31T00:07:56;62.40;;;23.48;;
50393;SDS011;36308;46.312;25.288;2023-03-31T00:10:26;55.47;;;21.23;;
50393;SDS011;36308;46.312;25.288;2023-03-31T00:12:52;44.45;;;19.45;;
50393;SDS011;36308;46.312;25.288;2023-03-31T00:15:18;32.75;;;14.70;;
50393;SDS011;36308;46.312;25.288;2023-03-31T00:17:43;19.15;;;8.52;;
50393;SDS011;36308;46.312;25.288;2023-03-31T00:20:11;15.93;;;8.57;;
50393;SDS011;36308;46.312;25.288;2023-03-31T00:22:39;14.23;;;8.48;;
50393;SDS011;36308;46.312;25.288;2023-03-31T00:25:07;14.02;;;8.63;;
50393;SDS011;36308;46.312;25.288;2023-03-31T00:27:35;15.32;;;7.90;;
50393;SDS011;36308;46.312;25.288;2023-03-31T00:30:01;16.73;;;8.80;;
50393;SDS011;36308;46.312;25.288;2023-03-31T00:32:26;14.13;;;8.10;;
50393;SDS011;36308;46.312;25.288;2023-03-31T00:34:52;14.48;;;7.63;;
50393;SDS011;36308;46.312;25.288;2023-03-31T00:37:17;15.90;;;9.18;;
50393;SDS011;36308;46.312;25.288;2023-03-31T00:39:43;13.80;;;8.23;;
50393;SDS011;36308;46.312;25.288;2023-03-31T00:42:11;12.93;;;7.45;;
50393;SDS011;36308;46.312;25.288;2023-03-31T00:47:41;11.45;;;6.03;;
50393;SDS011;36308;46.312;25.288;2023-03-31T00:50:14;11.30;;;5.90;;
50393;SDS011;36308;46.312;25.288;2023-03-31T00:55:13;9.43;;;4.82;;
50393;SDS011;36308;46.312;25.288;2023-03-31T00:57:43;11.45;;;6.07;;
50393;SDS011;36308;46.312;25.288;2023-03-31T01:00:11;9.75;;;4.55;;
50393;SDS011;36308;46.312;25.288;2023-03-31T01:02:45;13.38;;;6.30;;
50393;SDS011;36308;46.312;25.288;2023-03-31T01:05:25;18.48;;;9.35;;
50393;SDS011;36308;46.312;25.288;2023-03-31T01:07:55;25.27;;;12.30;;
50393;SDS011;36308;46.312;25.288;2023-03-31T01:10:23;11.68;;;6.00;;
50393;SDS011;36308;46.312;25.288;2023-03-31T01:12:51;9.40;;;5.40;;
50393;SDS011;36308;46.312;25.288;2023-03-31T01:15:19;10.50;;;4.85;;
50393;SDS011;36308;46.312;25.288;2023-03-31T01:17:44;7.15;;;3.83;;
50393;SDS011;36308;46.312;25.288;2023-03-31T01:42:13;7.70;;;4.55;;
50393;SDS011;36308;46.312;25.288;2023-03-31T01:47:42;7.35;;;3.85;;
50393;SDS011;36308;46.312;25.288;2023-03-31T01:50:25;7.90;;;3.95;;
50393;SDS011;36308;46.312;25.288;2023-03-31T01:53:04;6.85;;;3.70;;
50393;SDS011;36308;46.312;25.288;2023-03-31T01:55:36;8.30;;;4.03;;
50393;SDS011;36308;46.312;25.288;2023-03-31T02:00:40;9.00;;;5.07;;
50393;SDS011;36308;46.312;25.288;2023-03-31T02:03:20;7.75;;;4.88;;
50393;SDS011;36308;46.312;25.288;2023-03-31T02:05:51;9.13;;;5.35;;
50393;SDS011;36308;46.312;25.288;2023-03-31T02:08:23;12.93;;;6.68;;
50393;SDS011;36308;46.312;25.288;2023-03-31T02:10:57;10.82;;;5.80;;
50393;SDS011;36308;46.312;25.288;2023-03-31T02:13:23;10.88;;;6.15;;
50393;SDS011;36308;46.312;25.288;2023-03-31T02:15:52;9.93;;;5.68;;
50393;SDS011;36308;46.312;25.288;2023-03-31T02:18:22;11.13;;;7.00;;
50393;SDS011;36308;46.312;25.288;2023-03-31T02:20:52;12.85;;;7.93;;
50393;SDS011;36308;46.312;25.288;2023-03-31T02:23:22;14.73;;;8.40;;
50393;SDS011;36308;46.312;25.288;2023-03-31T02:26:09;16.05;;;8.65;;
50393;SDS011;36308;46.312;25.288;2023-03-31T02:28:40;14.77;;;8.43;;
50393;SDS011;36308;46.312;25.288;2023-03-31T02:34:03;17.52;;;8.43;;
50393;SDS011;36308;46.312;25.288;2023-03-31T02:36:28;18.05;;;8.30;;
50393;SDS011;36308;46.312;25.288;2023-03-31T02:38:58;15.70;;;8.68;;
50393;SDS011;36308;46.312;25.288;2023-03-31T02:41:29;15.45;;;8.80;;
50393;SDS011;36308;46.312;25.288;2023-03-31T02:43:55;14.27;;;7.30;;
50393;SDS011;36308;46.312;25.288;2023-03-31T02:46:20;15.13;;;8.52;;
50393;SDS011;36308;46.312;25.288;2023-03-31T02:48:50;13.65;;;7.63;;
50393;SDS011;36308;46.312;25.288;2023-03-31T02:59:59;22.52;;;12.90;;
50393;SDS011;36308;46.312;25.288;2023-03-31T03:10:30;32.10;;;17.17;;
50393;SDS011;36308;46.312;25.288;2023-03-31T03:15:48;31.10;;;16.67;;
50393;SDS011;36308;46.312;25.288;2023-03-31T03:18:20;30.73;;;16.98;;
50393;SDS011;36308;46.312;25.288;2023-03-31T03:20:45;29.05;;;16.00;;
50393;SDS011;36308;46.312;25.288;2023-03-31T03:23:15;27.13;;;16.02;;
50393;SDS011;36308;46.312;25.288;2023-03-31T03:25:42;25.02;;;14.02;;
50393;SDS011;36308;46.312;25.288;2023-03-31T03:28:07;20.15;;;11.20;;
50393;SDS011;36308;46.312;25.288;2023-03-31T03:30:33;25.50;;;12.85;;
50393;SDS011;36308;46.312;25.288;2023-03-31T03:32:59;21.35;;;12.05;;
50393;SDS011;36308;46.312;25.288;2023-03-31T03:35:24;19.20;;;11.45;;
50393;SDS011;36308;46.312;25.288;2023-03-31T03:37:50;19.48;;;10.63;;
50393;SDS011;36308;46.312;25.288;2023-03-31T03:40:15;19.85;;;11.23;;
50393;SDS011;36308;46.312;25.288;2023-03-31T03:42:41;16.52;;;9.73;;
50393;SDS011;36308;46.312;25.288;2023-03-31T03:45:07;18.33;;;9.55;;
50393;SDS011;36308;46.312;25.288;2023-03-31T03:47:33;17.98;;;8.80;;
50393;SDS011;36308;46.312;25.288;2023-03-31T03:50:00;12.73;;;8.35;;
50393;SDS011;36308;46.312;25.288;2023-03-31T03:52:26;15.20;;;9.18;;
50393;SDS011;36308;46.312;25.288;2023-03-31T03:54:51;18.00;;;10.95;;
50393;SDS011;36308;46.312;25.288;2023-03-31T03:57:17;16.98;;;10.32;;
50393;SDS011;36308;46.312;25.288;2023-03-31T03:59:42;14.43;;;8.60;;
50393;SDS011;36308;46.312;25.288;2023-03-31T04:02:08;22.92;;;13.27;;
50393;SDS011;36308;46.312;25.288;2023-03-31T04:04:33;16.95;;;10.68;;
50393;SDS011;36308;46.312;25.288;2023-03-31T04:06:59;18.17;;;11.57;;
50393;SDS011;36308;46.312;25.288;2023-03-31T04:09:24;17.63;;;10.00;;
50393;SDS011;36308;46.312;25.288;2023-03-31T04:11:50;21.27;;;12.23;;
50393;SDS011;36308;46.312;25.288;2023-03-31T04:14:15;18.83;;;12.13;;
50393;SDS011;36308;46.312;25.288;2023-03-31T04:16:41;16.05;;;11.52;;
50393;SDS011;36308;46.312;25.288;2023-03-31T04:19:06;12.48;;;7.68;;
50393;SDS011;36308;46.312;25.288;2023-03-31T04:21:36;12.60;;;7.57;;
50393;SDS011;36308;46.312;25.288;2023-03-31T04:24:09;12.38;;;6.90;;
50393;SDS011;36308;46.312;25.288;2023-03-31T04:26:45;16.75;;;9.23;;
50393;SDS011;36308;46.312;25.288;2023-03-31T04:29:14;15.88;;;9.02;;
50393;SDS011;36308;46.312;25.288;2023-03-31T04:31:40;14.15;;;8.43;;
50393;SDS011;36308;46.312;25.288;2023-03-31T04:34:07;16.98;;;13.02;;
50393;SDS011;36308;46.312;25.288;2023-03-31T04:36:37;18.27;;;10.10;;
50393;SDS011;36308;46.312;25.288;2023-03-31T04:39:06;21.45;;;10.82;;
50393;SDS011;36308;46.312;25.288;2023-03-31T04:41:34;22.25;;;11.68;;
50393;SDS011;36308;46.312;25.288;2023-03-31T04:44:00;24.58;;;14.27;;
50393;SDS011;36308;46.312;25.288;2023-03-31T04:46:26;17.42;;;11.25;;
50393;SDS011;36308;46.312;25.288;2023-03-31T04:48:52;79.97;;;34.22;;
50393;SDS011;36308;46.312;25.288;2023-03-31T04:51:17;51.42;;;22.40;;
50393;SDS011;36308;46.312;25.288;2023-03-31T04:53:44;20.63;;;11.40;;
50393;SDS011;36308;46.312;25.288;2023-03-31T04:56:10;18.27;;;10.48;;
50393;SDS011;36308;46.312;25.288;2023-03-31T04:58:36;14.60;;;7.50;;
50393;SDS011;36308;46.312;25.288;2023-03-31T05:01:02;14.65;;;8.43;;
50393;SDS011;36308;46.312;25.288;2023-03-31T05:03:30;25.92;;;13.57;;
50393;SDS011;36308;46.312;25.288;2023-03-31T05:05:56;26.75;;;14.25;;
50393;SDS011;36308;46.312;25.288;2023-03-31T05:08:22;20.30;;;12.40;;
50393;SDS011;36308;46.312;25.288;2023-03-31T05:10:47;25.38;;;12.98;;
50393;SDS011;36308;46.312;25.288;2023-03-31T05:13:13;19.08;;;11.07;;
50393;SDS011;36308;46.312;25.288;2023-03-31T05:15:38;25.10;;;15.02;;
50393;SDS011;36308;46.312;25.288;2023-03-31T05:18:05;21.13;;;11.90;;
50393;SDS011;36308;46.312;25.288;2023-03-31T05:20:31;20.17;;;11.95;;
50393;SDS011;36308;46.312;25.288;2023-03-31T05:22:56;21.48;;;11.70;;
50393;SDS011;36308;46.312;25.288;2023-03-31T05:25:22;19.65;;;12.43;;
50393;SDS011;36308;46.312;25.288;2023-03-31T05:27:48;33.47;;;22.98;;
50393;SDS011;36308;46.312;25.288;2023-03-31T05:30:15;20.70;;;14.38;;
50393;SDS011;36308;46.312;25.288;2023-03-31T05:32:41;23.48;;;14.20;;
50393;SDS011;36308;46.312;25.288;2023-03-31T05:35:08;28.20;;;17.33;;
50393;SDS011;36308;46.312;25.288;2023-03-31T05:37:34;30.30;;;18.48;;
50393;SDS011;36308;46.312;25.288;2023-03-31T05:40:00;53.88;;;30.80;;
50393;SDS011;36308;46.312;25.288;2023-03-31T05:42:28;48.22;;;28.27;;
50393;SDS011;36308;46.312;25.288;2023-03-31T05:44:53;56.33;;;31.35;;
50393;SDS011;36308;46.312;25.288;2023-03-31T05:47:19;45.15;;;26.70;;
50393;SDS011;36308;46.312;25.288;2023-03-31T05:49:45;40.60;;;23.60;;
50393;SDS011;36308;46.312;25.288;2023-03-31T05:52:10;37.47;;;23.00;;
50393;SDS011;36308;46.312;25.288;2023-03-31T05:54:36;32.80;;;20.08;;
50393;SDS011;36308;46.312;25.288;2023-03-31T05:57:02;13.95;;;8.68;;
50393;SDS011;36308;46.312;25.288;2023-03-31T05:59:27;18.95;;;11.05;;
50393;SDS011;36308;46.312;25.288;2023-03-31T06:01:53;25.08;;;16.30;;
50393;SDS011;36308;46.312;25.288;2023-03-31T06:04:18;30.27;;;17.55;;
50393;SDS011;36308;46.312;25.288;2023-03-31T06:06:44;31.77;;;19.05;;
50393;SDS011;36308;46.312;25.288;2023-03-31T06:09:10;29.17;;;18.67;;
50393;SDS011;36308;46.312;25.288;2023-03-31T06:11:36;37.60;;;21.70;;
50393;SDS011;36308;46.312;25.288;2023-03-31T06:14:03;55.38;;;37.63;;
50393;SDS011;36308;46.312;25.288;2023-03-31T06:16:29;57.03;;;37.85;;
50393;SDS011;36308;46.312;25.288;2023-03-31T06:18:55;39.85;;;26.17;;
50393;SDS011;36308;46.312;25.288;2023-03-31T06:21:20;32.90;;;23.83;;
50393;SDS011;36308;46.312;25.288;2023-03-31T06:23:46;36.42;;;24.75;;
50393;SDS011;36308;46.312;25.288;2023-03-31T06:26:16;48.65;;;33.35;;
50393;SDS011;36308;46.312;25.288;2023-03-31T06:28:43;43.58;;;23.73;;
50393;SDS011;36308;46.312;25.288;2023-03-31T06:31:13;24.05;;;15.27;;
50393;SDS011;36308;46.312;25.288;2023-03-31T06:33:41;21.77;;;14.27;;
50393;SDS011;36308;46.312;25.288;2023-03-31T06:36:08;28.88;;;19.35;;
50393;SDS011;36308;46.312;25.288;2023-03-31T06:38:35;20.30;;;14.82;;
50393;SDS011;36308;46.312;25.288;2023-03-31T06:41:05;26.27;;;17.48;;
50393;SDS011;36308;46.312;25.288;2023-03-31T06:43:30;27.70;;;18.17;;
50393;SDS011;36308;46.312;25.288;2023-03-31T06:45:56;21.05;;;13.82;;
50393;SDS011;36308;46.312;25.288;2023-03-31T06:48:23;27.60;;;18.05;;
50393;SDS011;36308;46.312;25.288;2023-03-31T06:50:49;28.23;;;18.08;;
50393;SDS011;36308;46.312;25.288;2023-03-31T06:53:15;21.85;;;14.25;;
50393;SDS011;36308;46.312;25.288;2023-03-31T06:55:40;43.30;;;28.10;;
50393;SDS011;36308;46.312;25.288;2023-03-31T06:58:05;33.28;;;20.58;;
50393;SDS011;36308;46.312;25.288;2023-03-31T07:00:32;61.80;;;45.72;;
50393;SDS011;36308;46.312;25.288;2023-03-31T07:02:58;25.00;;;17.50;;
50393;SDS011;36308;46.312;25.288;2023-03-31T07:05:24;29.58;;;17.35;;
50393;SDS011;36308;46.312;25.288;2023-03-31T07:07:56;31.23;;;17.27;;
50393;SDS011;36308;46.312;25.288;2023-03-31T07:10:24;29.13;;;18.48;;
50393;SDS011;36308;46.312;25.288;2023-03-31T07:12:51;33.08;;;22.13;;
50393;SDS011;36308;46.312;25.288;2023-03-31T07:15:17;39.00;;;26.55;;
50393;SDS011;36308;46.312;25.288;2023-03-31T07:17:43;38.00;;;25.65;;
50393;SDS011;36308;46.312;25.288;2023-03-31T07:20:12;46.22;;;28.98;;
50393;SDS011;36308;46.312;25.288;2023-03-31T07:22:42;39.83;;;28.42;;
50393;SDS011;36308;46.312;25.288;2023-03-31T07:25:11;40.10;;;26.95;;
50393;SDS011;36308;46.312;25.288;2023-03-31T07:27:39;38.67;;;25.23;;
50393;SDS011;36308;46.312;25.288;2023-03-31T07:30:05;38.92;;;25.75;;
50393;SDS011;36308;46.312;25.288;2023-03-31T07:32:32;40.17;;;25.90;;
50393;SDS011;36308;46.312;25.288;2023-03-31T07:34:58;37.08;;;25.52;;
50393;SDS011;36308;46.312;25.288;2023-03-31T07:37:24;32.08;;;21.80;;
50393;SDS011;36308;46.312;25.288;2023-03-31T07:39:49;69.25;;;33.47;;
50393;SDS011;36308;46.312;25.288;2023-03-31T07:42:15;50.65;;;30.77;;
50393;SDS011;36308;46.312;25.288;2023-03-31T07:44:41;57.70;;;35.63;;
50393;SDS011;36308;46.312;25.288;2023-03-31T07:47:06;44.15;;;29.10;;
50393;SDS011;36308;46.312;25.288;2023-03-31T07:49:32;39.45;;;25.75;;
50393;SDS011;36308;46.312;25.288;2023-03-31T07:51:58;41.40;;;27.02;;
50393;SDS011;36308;46.312;25.288;2023-03-31T07:54:25;43.88;;;27.40;;
50393;SDS011;36308;46.312;25.288;2023-03-31T07:56:51;40.03;;;26.70;;
50393;SDS011;36308;46.312;25.288;2023-03-31T07:59:17;45.10;;;29.08;;
50393;SDS011;36308;46.312;25.288;2023-03-31T08:01:42;41.42;;;26.92;;
50393;SDS011;36308;46.312;25.288;2023-03-31T08:04:08;50.65;;;32.72;;
50393;SDS011;36308;46.312;25.288;2023-03-31T08:06:36;41.90;;;27.60;;
50393;SDS011;36308;46.312;25.288;2023-03-31T08:09:02;49.95;;;32.78;;
50393;SDS011;36308;46.312;25.288;2023-03-31T08:11:29;48.22;;;31.63;;
50393;SDS011;36308;46.312;25.288;2023-03-31T08:13:54;52.80;;;35.75;;
50393;SDS011;36308;46.312;25.288;2023-03-31T08:16:20;46.40;;;32.15;;
50393;SDS011;36308;46.312;25.288;2023-03-31T08:18:46;44.17;;;28.27;;
50393;SDS011;36308;46.312;25.288;2023-03-31T08:21:11;45.00;;;31.33;;
50393;SDS011;36308;46.312;25.288;2023-03-31T08:23:37;44.10;;;28.90;;
50393;SDS011;36308;46.312;25.288;2023-03-31T08:26:09;36.38;;;25.67;;
50393;SDS011;36308;46.312;25.288;2023-03-31T08:28:44;45.50;;;33.88;;
50393;SDS011;36308;46.312;25.288;2023-03-31T08:31:10;41.03;;;26.35;;
50393;SDS011;36308;46.312;25.288;2023-03-31T08:33:36;48.70;;;32.38;;
50393;SDS011;36308;46.312;25.288;2023-03-31T08:36:06;42.30;;;29.08;;
50393;SDS011;36308;46.312;25.288;2023-03-31T08:38:34;37.90;;;26.55;;
50393;SDS011;36308;46.312;25.288;2023-03-31T08:41:07;35.58;;;25.10;;
50393;SDS011;36308;46.312;25.288;2023-03-31T08:43:48;36.13;;;26.88;;
50393;SDS011;36308;46.312;25.288;2023-03-31T08:46:16;40.17;;;26.55;;
50393;SDS011;36308;46.312;25.288;2023-03-31T08:48:47;35.15;;;24.52;;
50393;SDS011;36308;46.312;25.288;2023-03-31T08:51:23;30.95;;;20.25;;
50393;SDS011;36308;46.312;25.288;2023-03-31T08:56:23;34.50;;;21.50;;
50393;SDS011;36308;46.312;25.288;2023-03-31T08:58:51;37.58;;;27.23;;
50393;SDS011;36308;46.312;25.288;2023-03-31T09:09:34;45.03;;;30.38;;
50393;SDS011;36308;46.312;25.288;2023-03-31T09:15:13;48.80;;;36.30;;
50393;SDS011;36308;46.312;25.288;2023-03-31T09:17:43;58.28;;;37.22;;
50393;SDS011;36308;46.312;25.288;2023-03-31T09:22:49;48.58;;;33.63;;
50393;SDS011;36308;46.312;25.288;2023-03-31T09:25:24;35.55;;;25.40;;
50393;SDS011;36308;46.312;25.288;2023-03-31T09:27:52;24.60;;;17.40;;
50393;SDS011;36308;46.312;25.288;2023-03-31T09:32:52;28.40;;;21.02;;
50393;SDS011;36308;46.312;25.288;2023-03-31T09:35:35;28.15;;;20.27;;
50393;SDS011;36308;46.312;25.288;2023-03-31T09:38:01;32.38;;;23.60;;
50393;SDS011;36308;46.312;25.288;2023-03-31T09:40:27;41.17;;;29.48;;
50393;SDS011;36308;46.312;25.288;2023-03-31T09:42:55;24.52;;;16.63;;
50393;SDS011;36308;46.312;25.288;2023-03-31T09:45:23;33.08;;;21.58;;
50393;SDS011;36308;46.312;25.288;2023-03-31T09:47:50;29.45;;;22.90;;
50393;SDS011;36308;46.312;25.288;2023-03-31T09:50:19;35.25;;;25.25;;
50393;SDS011;36308;46.312;25.288;2023-03-31T09:52:50;33.67;;;25.55;;
50393;SDS011;36308;46.312;25.288;2023-03-31T09:55:24;37.95;;;28.42;;
50393;SDS011;36308;46.312;25.288;2023-03-31T09:58:11;27.88;;;21.90;;
50393;SDS011;36308;46.312;25.288;2023-03-31T10:00:42;28.88;;;22.05;;
50393;SDS011;36308;46.312;25.288;2023-03-31T10:03:21;33.47;;;23.92;;
50393;SDS011;36308;46.312;25.288;2023-03-31T10:05:50;35.20;;;25.25;;
50393;SDS011;36308;46.312;25.288;2023-03-31T10:10:56;33.97;;;25.88;;
50393;SDS011;36308;46.312;25.288;2023-03-31T10:16:23;65.53;;;43.50;;
50393;SDS011;36308;46.312;25.288;2023-03-31T10:19:23;52.92;;;37.90;;
50393;SDS011;36308;46.312;25.288;2023-03-31T10:21:56;56.40;;;39.25;;
50393;SDS011;36308;46.312;25.288;2023-03-31T10:24:23;55.97;;;34.95;;
50393;SDS011;36308;46.312;25.288;2023-03-31T10:26:51;48.08;;;33.75;;
50393;SDS011;36308;46.312;25.288;2023-03-31T10:29:20;51.83;;;36.28;;
50393;SDS011;36308;46.312;25.288;2023-03-31T10:32:03;61.95;;;40.85;;
50393;SDS011;36308;46.312;25.288;2023-03-31T10:34:34;55.28;;;35.92;;
50393;SDS011;36308;46.312;25.288;2023-03-31T10:37:06;58.80;;;39.17;;
50393;SDS011;36308;46.312;25.288;2023-03-31T10:39:35;50.90;;;36.42;;
50393;SDS011;36308;46.312;25.288;2023-03-31T10:42:02;50.88;;;34.30;;
50393;SDS011;36308;46.312;25.288;2023-03-31T10:44:33;51.67;;;32.42;;
50393;SDS011;36308;46.312;25.288;2023-03-31T10:47:16;46.38;;;33.45;;
50393;SDS011;36308;46.312;25.288;2023-03-31T10:49:42;42.83;;;29.17;;
50393;SDS011;36308;46.312;25.288;2023-03-31T10:52:24;40.28;;;27.52;;
50393;SDS011;36308;46.312;25.288;2023-03-31T10:54:54;40.55;;;29.08;;
50393;SDS011;36308;46.312;25.288;2023-03-31T11:00:09;49.35;;;33.45;;
50393;SDS011;36308;46.312;25.288;2023-03-31T11:16:18;38.50;;;28.00;;
50393;SDS011;36308;46.312;25.288;2023-03-31T11:40:26;26.63;;;20.17;;
50393;SDS011;36308;46.312;25.288;2023-03-31T11:46:02;29.17;;;20.98;;
50393;SDS011;36308;46.312;25.288;2023-03-31T11:48:44;28.15;;;18.92;;
50393;SDS011;36308;46.312;25.288;2023-03-31T11:51:13;28.15;;;20.17;;
50393;SDS011;36308;46.312;25.288;2023-03-31T11:53:47;29.27;;;20.65;;
50393;SDS011;36308;46.312;25.288;2023-03-31T11:56:16;28.75;;;19.75;;
50393;SDS011;36308;46.312;25.288;2023-03-31T11:58:44;34.90;;;24.20;;
50393;SDS011;36308;46.312;25.288;2023-03-31T12:01:26;31.25;;;22.33;;
50393;SDS011;36308;46.312;25.288;2023-03-31T12:17:12;37.78;;;26.48;;
50393;SDS011;36308;46.312;25.288;2023-03-31T12:19:56;36.67;;;26.05;;
50393;SDS011;36308;46.312;25.288;2023-03-31T12:22:39;31.65;;;22.63;;
50393;SDS011;36308;46.312;25.288;2023-03-31T12:25:15;28.63;;;21.83;;
50393;SDS011;36308;46.312;25.288;2023-03-31T12:27:50;36.50;;;26.20;;
50393;SDS011;36308;46.312;25.288;2023-03-31T12:32:56;26.60;;;19.90;;
50393;SDS011;36308;46.312;25.288;2023-03-31T12:35:40;32.75;;;22.33;;
50393;SDS011;36308;46.312;25.288;2023-03-31T12:41:19;22.63;;;16.88;;
50393;SDS011;36308;46.312;25.288;2023-03-31T12:48:53;23.67;;;17.88;;
50393;SDS011;36308;46.312;25.288;2023-03-31T12:57:34;11.40;;;8.38;;
50393;SDS011;36308;46.312;25.288;2023-03-31T13:02:38;11.00;;;7.35;;
50393;SDS011;36308;46.312;25.288;2023-03-31T13:08:04;9.98;;;6.63;;
50393;SDS011;36308;46.312;25.288;2023-03-31T13:13:22;10.93;;;7.75;;
50393;SDS011;36308;46.312;25.288;2023-03-31T13:15:54;18.92;;;13.15;;
50393;SDS011;36308;46.312;25.288;2023-03-31T13:18:21;31.48;;;22.20;;
50393;SDS011;36308;46.312;25.288;2023-03-31T13:21:00;37.13;;;23.80;;
50393;SDS011;36308;46.312;25.288;2023-03-31T13:23:29;61.95;;;33.40;;
50393;SDS011;36308;46.312;25.288;2023-03-31T13:25:59;26.30;;;16.85;;
50393;SDS011;36308;46.312;25.288;2023-03-31T13:28:41;27.13;;;17.13;;
50393;SDS011;36308;46.312;25.288;2023-03-31T13:31:09;30.50;;;19.25;;
50393;SDS011;36308;46.312;25.288;2023-03-31T13:33:37;26.90;;;17.70;;
50393;SDS011;36308;46.312;25.288;2023-03-31T13:36:18;26.98;;;20.05;;
50393;SDS011;36308;46.312;25.288;2023-03-31T13:50:18;17.60;;;13.13;;
50393;SDS011;36308;46.312;25.288;2023-03-31T13:58:45;14.00;;;9.80;;
50393;SDS011;36308;46.312;25.288;2023-03-31T14:04:00;18.63;;;12.15;;
50393;SDS011;36308;46.312;25.288;2023-03-31T14:09:30;25.25;;;14.00;;
50393;SDS011;36308;46.312;25.288;2023-03-31T14:14:46;16.42;;;10.48;;
50393;SDS011;36308;46.312;25.288;2023-03-31T14:17:12;18.60;;;10.77;;
50393;SDS011;36308;46.312;25.288;2023-03-31T14:31:18;12.23;;;8.40;;
50393;SDS011;36308;46.312;25.288;2023-03-31T14:39:30;20.60;;;13.05;;
50393;SDS011;36308;46.312;25.288;2023-03-31T14:42:01;23.30;;;15.02;;
50393;SDS011;36308;46.312;25.288;2023-03-31T14:44:35;23.58;;;14.75;;
50393;SDS011;36308;46.312;25.288;2023-03-31T14:47:12;39.75;;;23.98;;
50393;SDS011;36308;46.312;25.288;2023-03-31T14:50:04;25.92;;;14.98;;
50393;SDS011;36308;46.312;25.288;2023-03-31T14:52:37;18.55;;;10.70;;
50393;SDS011;36308;46.312;25.288;2023-03-31T14:55:02;16.77;;;11.45;;
50393;SDS011;36308;46.312;25.288;2023-03-31T14:57:29;21.42;;;15.00;;
50393;SDS011;36308;46.312;25.288;2023-03-31T15:02:36;16.98;;;12.25;;
50393;SDS011;36308;46.312;25.288;2023-03-31T15:05:07;24.38;;;19.15;;
50393;SDS011;36308;46.312;25.288;2023-03-31T15:07:35;32.92;;;26.65;;
50393;SDS011;36308;46.312;25.288;2023-03-31T15:10:02;23.77;;;18.13;;
50393;SDS011;36308;46.312;25.288;2023-03-31T15:12:29;19.35;;;13.52;;
50393;SDS011;36308;46.312;25.288;2023-03-31T15:15:02;27.88;;;17.38;;
50393;SDS011;36308;46.312;25.288;2023-03-31T15:17:31;20.42;;;13.30;;
50393;SDS011;36308;46.312;25.288;2023-03-31T15:20:19;23.88;;;16.73;;
50393;SDS011;36308;46.312;25.288;2023-03-31T15:22:45;28.67;;;21.33;;
50393;SDS011;36308;46.312;25.288;2023-03-31T15:25:12;17.20;;;12.75;;
50393;SDS011;36308;46.312;25.288;2023-03-31T15:27:40;19.25;;;12.00;;
50393;SDS011;36308;46.312;25.288;2023-03-31T15:30:18;22.83;;;13.30;;
50393;SDS011;36308;46.312;25.288;2023-03-31T15:32:47;25.25;;;14.65;;
50393;SDS011;36308;46.312;25.288;2023-03-31T15:35:31;22.05;;;13.95;;
50393;SDS011;36308;46.312;25.288;2023-03-31T15:37:59;26.55;;;15.73;;
50393;SDS011;36308;46.312;25.288;2023-03-31T15:40:30;23.33;;;13.65;;
50393;SDS011;36308;46.312;25.288;2023-03-31T15:45:50;16.20;;;11.18;;
50393;SDS011;36308;46.312;25.288;2023-03-31T15:48:22;17.25;;;10.20;;
50393;SDS011;36308;46.312;25.288;2023-03-31T15:50:59;16.17;;;9.48;;
50393;SDS011;36308;46.312;25.288;2023-03-31T15:55:59;19.08;;;11.93;;
50393;SDS011;36308;46.312;25.288;2023-03-31T16:01:19;26.33;;;17.75;;
50393;SDS011;36308;46.312;25.288;2023-03-31T16:03:45;25.40;;;16.88;;
50393;SDS011;36308;46.312;25.288;2023-03-31T16:06:18;23.25;;;14.48;;
50393;SDS011;36308;46.312;25.288;2023-03-31T16:09:02;30.13;;;20.95;;
50393;SDS011;36308;46.312;25.288;2023-03-31T16:11:33;24.33;;;17.35;;
50393;SDS011;36308;46.312;25.288;2023-03-31T16:14:07;25.08;;;17.42;;
50393;SDS011;36308;46.312;25.288;2023-03-31T16:16:52;24.33;;;17.33;;
50393;SDS011;36308;46.312;25.288;2023-03-31T16:19:23;29.70;;;20.77;;
50393;SDS011;36308;46.312;25.288;2023-03-31T16:21:52;32.88;;;23.48;;
50393;SDS011;36308;46.312;25.288;2023-03-31T16:24:20;29.23;;;21.35;;
50393;SDS011;36308;46.312;25.288;2023-03-31T16:26:58;26.83;;;19.73;;
50393;SDS011;36308;46.312;25.288;2023-03-31T16:29:26;24.63;;;17.67;;
50393;SDS011;36308;46.312;25.288;2023-03-31T16:32:05;27.55;;;18.35;;
50393;SDS011;36308;46.312;25.288;2023-03-31T16:34:57;54.72;;;32.33;;
50393;SDS011;36308;46.312;25.288;2023-03-31T16:37:25;46.75;;;30.40;;
50393;SDS011;36308;46.312;25.288;2023-03-31T16:39:51;48.30;;;33.05;;
50393;SDS011;36308;46.312;25.288;2023-03-31T16:42:17;42.75;;;27.90;;
50393;SDS011;36308;46.312;25.288;2023-03-31T16:44:43;41.10;;;28.77;;
50393;SDS011;36308;46.312;25.288;2023-03-31T16:47:10;51.85;;;35.25;;
50393;SDS011;36308;46.312;25.288;2023-03-31T16:49:39;47.42;;;35.13;;
50393;SDS011;36308;46.312;25.288;2023-03-31T16:52:05;60.80;;;42.67;;
50393;SDS011;36308;46.312;25.288;2023-03-31T16:54:33;72.57;;;47.55;;
50393;SDS011;36308;46.312;25.288;2023-03-31T16:56:58;71.32;;;50.70;;
50393;SDS011;36308;46.312;25.288;2023-03-31T16:59:25;75.60;;;59.42;;
50393;SDS011;36308;46.312;25.288;2023-03-31T17:01:51;44.25;;;36.67;;
50393;SDS011;36308;46.312;25.288;2023-03-31T17:04:16;34.70;;;24.85;;
50393;SDS011;36308;46.312;25.288;2023-03-31T17:06:43;39.85;;;26.67;;
50393;SDS011;36308;46.312;25.288;2023-03-31T17:09:09;34.33;;;24.20;;
50393;SDS011;36308;46.312;25.288;2023-03-31T17:11:35;34.88;;;26.92;;
50393;SDS011;36308;46.312;25.288;2023-03-31T17:14:00;39.47;;;28.45;;
50393;SDS011;36308;46.312;25.288;2023-03-31T17:16:28;50.58;;;33.85;;
50393;SDS011;36308;46.312;25.288;2023-03-31T17:18:53;66.72;;;45.40;;
50393;SDS011;36308;46.312;25.288;2023-03-31T17:21:18;77.72;;;51.90;;
50393;SDS011;36308;46.312;25.288;2023-03-31T17:23:45;48.92;;;35.28;;
50393;SDS011;36308;46.312;25.288;2023-03-31T17:26:11;35.40;;;25.13;;
50393;SDS011;36308;46.312;25.288;2023-03-31T17:28:37;43.70;;;28.70;;
50393;SDS011;36308;46.312;25.288;2023-03-31T17:31:13;34.53;;;22.02;;
50393;SDS011;36308;46.312;25.288;2023-03-31T17:33:40;37.15;;;22.30;;
50393;SDS011;36308;46.312;25.288;2023-03-31T17:36:08;88.07;;;46.50;;
50393;SDS011;36308;46.312;25.288;2023-03-31T17:38:34;101.10;;;53.30;;
50393;SDS011;36308;46.312;25.288;2023-03-31T17:41:03;97.22;;;54.13;;
50393;SDS011;36308;46.312;25.288;2023-03-31T17:43:30;104.53;;;60.28;;
50393;SDS011;36308;46.312;25.288;2023-03-31T17:46:15;81.88;;;48.95;;
50393;SDS011;36308;46.312;25.288;2023-03-31T17:48:42;48.80;;;31.20;;
50393;SDS011;36308;46.312;25.288;2023-03-31T17:51:13;33.40;;;24.50;;
50393;SDS011;36308;46.312;25.288;2023-03-31T17:53:44;29.08;;;19.80;;
50393;SDS011;36308;46.312;25.288;2023-03-31T17:56:10;30.15;;;21.95;;